sensor_id;sensor_type;location;lat;lon;timestamp;temperature;humidity
30304;DHT22;17112;48.636;10.152;2023-10-31T00:02:02;14.30;74.60
30304;DHT22;17112;48.636;10.152;2023-10-31T00:04:27;14.30;74.60
30304;DHT22;17112;48.636;10.152;2023-10-31T00:06:53;14.30;74.70
30304;DHT22;17112;48.636;10.152;2023-10-31T00:09:19;14.30;74.80
30304;DHT22;17112;48.636;10.152;2023-10-31T00:11:44;14.30;74.90
30304;DHT22;17112;48.636;10.152;2023-10-31T00:14:10;14.30;74.90
30304;DHT22;17112;48.636;10.152;2023-10-31T00:16:36;14.30;74.90
30304;DHT22;17112;48.636;10.152;2023-10-31T00:19:01;14.30;74.80
30304;DHT22;17112;48.636;10.152;2023-10-31T00:21:27;14.30;74.80
30304;DHT22;17112;48.636;10.152;2023-10-31T00:23:53;14.30;74.80
30304;DHT22;17112;48.636;10.152;2023-10-31T00:26:18;14.30;74.90
30304;DHT22;17112;48.636;10.152;2023-10-31T00:28:44;14.30;74.90
30304;DHT22;17112;48.636;10.152;2023-10-31T00:31:10;14.30;74.90
30304;DHT22;17112;48.636;10.152;2023-10-31T00:33:37;14.30;74.80
30304;DHT22;17112;48.636;10.152;2023-10-31T00:36:03;14.30;74.80
30304;DHT22;17112;48.636;10.152;2023-10-31T00:38:29;14.30;74.80
30304;DHT22;17112;48.636;10.152;2023-10-31T00:40:55;14.30;74.70
30304;DHT22;17112;48.636;10.152;2023-10-31T00:43:20;14.30;74.70
30304;DHT22;17112;48.636;10.152;2023-10-31T00:45:46;14.30;74.70
30304;DHT22;17112;48.636;10.152;2023-10-31T00:48:12;14.20;74.60
30304;DHT22;17112;48.636;10.152;2023-10-31T00:50:37;14.20;74.60
30304;DHT22;17112;48.636;10.152;2023-10-31T00:53:03;14.20;74.70
30304;DHT22;17112;48.636;10.152;2023-10-31T00:55:29;14.20;74.60
30304;DHT22;17112;48.636;10.152;2023-10-31T00:57:54;14.20;74.70
30304;DHT22;17112;48.636;10.152;2023-10-31T01:00:20;14.20;74.80
30304;DHT22;17112;48.636;10.152;2023-10-31T01:02:46;14.20;74.80
30304;DHT22;17112;48.636;10.152;2023-10-31T01:05:11;14.20;74.80
30304;DHT22;17112;48.636;10.152;2023-10-31T01:07:37;14.10;74.90
30304;DHT22;17112;48.636;10.152;2023-10-31T01:10:03;14.10;75.00
30304;DHT22;17112;48.636;10.152;2023-10-31T01:12:30;14.10;74.90
30304;DHT22;17112;48.636;10.152;2023-10-31T01:14:56;14.10;74.90
30304;DHT22;17112;48.636;10.152;2023-10-31T01:17:22;14.10;75.00
30304;DHT22;17112;48.636;10.152;2023-10-31T01:19:48;14.10;74.90
30304;DHT22;17112;48.636;10.152;2023-10-31T01:22:13;14.10;74.80
30304;DHT22;17112;48.636;10.152;2023-10-31T01:24:39;14.10;75.00
30304;DHT22;17112;48.636;10.152;2023-10-31T01:27:04;14.10;75.10
30304;DHT22;17112;48.636;10.152;2023-10-31T01:29:30;14.10;75.10
30304;DHT22;17112;48.636;10.152;2023-10-31T01:31:56;14.10;75.10
30304;DHT22;17112;48.636;10.152;2023-10-31T01:34:22;14.10;75.10
30304;DHT22;17112;48.636;10.152;2023-10-31T01:36:48;14.10;75.60
30304;DHT22;17112;48.636;10.152;2023-10-31T01:39:14;14.00;74.70
30304;DHT22;17112;48.636;10.152;2023-10-31T01:41:43;14.00;74.70
30304;DHT22;17112;48.636;10.152;2023-10-31T01:44:10;14.00;74.70
30304;DHT22;17112;48.636;10.152;2023-10-31T01:46:36;14.00;74.70
30304;DHT22;17112;48.636;10.152;2023-10-31T01:49:02;14.00;74.50
30304;DHT22;17112;48.636;10.152;2023-10-31T01:51:28;14.00;74.70
30304;DHT22;17112;48.636;10.152;2023-10-31T01:53:55;13.90;74.40
30304;DHT22;17112;48.636;10.152;2023-10-31T01:56:21;13.90;74.30
30304;DHT22;17112;48.636;10.152;2023-10-31T01:58:48;13.80;74.00
30304;DHT22;17112;48.636;10.152;2023-10-31T02:01:14;13.80;73.90
30304;DHT22;17112;48.636;10.152;2023-10-31T02:03:40;13.70;73.80
30304;DHT22;17112;48.636;10.152;2023-10-31T02:06:06;13.70;73.80
30304;DHT22;17112;48.636;10.152;2023-10-31T02:08:32;13.70;74.60
30304;DHT22;17112;48.636;10.152;2023-10-31T02:10:58;13.60;73.70
30304;DHT22;17112;48.636;10.152;2023-10-31T02:13:23;13.60;73.70
30304;DHT22;17112;48.636;10.152;2023-10-31T02:15:49;13.50;73.70
30304;DHT22;17112;48.636;10.152;2023-10-31T02:18:15;13.50;73.70
30304;DHT22;17112;48.636;10.152;2023-10-31T02:20:41;13.50;73.50
30304;DHT22;17112;48.636;10.152;2023-10-31T02:23:07;13.40;73.50
30304;DHT22;17112;48.636;10.152;2023-10-31T02:25:33;13.40;73.60
30304;DHT22;17112;48.636;10.152;2023-10-31T02:27:59;13.30;73.50
30304;DHT22;17112;48.636;10.152;2023-10-31T02:30:25;13.30;73.60
30304;DHT22;17112;48.636;10.152;2023-10-31T02:32:51;13.30;73.70
30304;DHT22;17112;48.636;10.152;2023-10-31T02:35:17;13.30;73.70
30304;DHT22;17112;48.636;10.152;2023-10-31T02:37:44;13.30;73.80
30304;DHT22;17112;48.636;10.152;2023-10-31T02:40:10;13.20;73.70
30304;DHT22;17112;48.636;10.152;2023-10-31T02:42:36;13.30;73.80
30304;DHT22;17112;48.636;10.152;2023-10-31T02:45:03;13.20;73.80
30304;DHT22;17112;48.636;10.152;2023-10-31T02:47:29;13.20;73.80
30304;DHT22;17112;48.636;10.152;2023-10-31T02:49:55;13.20;73.80
30304;DHT22;17112;48.636;10.152;2023-10-31T02:52:21;13.20;73.90
30304;DHT22;17112;48.636;10.152;2023-10-31T02:54:47;13.20;73.90
30304;DHT22;17112;48.636;10.152;2023-10-31T02:57:12;13.20;74.00
30304;DHT22;17112;48.636;10.152;2023-10-31T02:59:38;13.20;74.10
30304;DHT22;17112;48.636;10.152;2023-10-31T03:02:04;13.20;74.10
30304;DHT22;17112;48.636;10.152;2023-10-31T03:04:29;13.20;74.30
30304;DHT22;17112;48.636;10.152;2023-10-31T03:06:55;13.20;74.20
30304;DHT22;17112;48.636;10.152;2023-10-31T03:09:21;13.30;74.20
30304;DHT22;17112;48.636;10.152;2023-10-31T03:11:46;13.30;74.10
30304;DHT22;17112;48.636;10.152;2023-10-31T03:14:12;13.30;74.10
30304;DHT22;17112;48.636;10.152;2023-10-31T03:16:37;13.30;74.00
30304;DHT22;17112;48.636;10.152;2023-10-31T03:19:04;13.30;73.90
30304;DHT22;17112;48.636;10.152;2023-10-31T03:21:30;13.30;74.00
30304;DHT22;17112;48.636;10.152;2023-10-31T03:23:56;13.30;74.10
30304;DHT22;17112;48.636;10.152;2023-10-31T03:26:22;13.30;74.00
30304;DHT22;17112;48.636;10.152;2023-10-31T03:28:48;13.30;73.80
30304;DHT22;17112;48.636;10.152;2023-10-31T03:31:14;13.30;73.80
30304;DHT22;17112;48.636;10.152;2023-10-31T03:33:40;13.30;73.80
30304;DHT22;17112;48.636;10.152;2023-10-31T03:36:07;13.30;73.80
30304;DHT22;17112;48.636;10.152;2023-10-31T03:38:34;13.30;73.80
30304;DHT22;17112;48.636;10.152;2023-10-31T03:41:00;13.20;73.70
30304;DHT22;17112;48.636;10.152;2023-10-31T03:43:26;13.20;73.70
30304;DHT22;17112;48.636;10.152;2023-10-31T03:45:52;13.20;73.60
30304;DHT22;17112;48.636;10.152;2023-10-31T03:48:18;13.20;73.50
30304;DHT22;17112;48.636;10.152;2023-10-31T03:50:44;13.20;73.50
30304;DHT22;17112;48.636;10.152;2023-10-31T03:53:10;13.20;73.40
30304;DHT22;17112;48.636;10.152;2023-10-31T03:55:36;13.20;73.40
30304;DHT22;17112;48.636;10.152;2023-10-31T03:58:01;13.20;73.50
30304;DHT22;17112;48.636;10.152;2023-10-31T04:00:27;13.20;73.50
30304;DHT22;17112;48.636;10.152;2023-10-31T04:02:53;13.20;73.50
30304;DHT22;17112;48.636;10.152;2023-10-31T04:05:18;13.20;73.50
30304;DHT22;17112;48.636;10.152;2023-10-31T04:07:46;13.20;73.60
30304;DHT22;17112;48.636;10.152;2023-10-31T04:10:11;13.20;73.60
30304;DHT22;17112;48.636;10.152;2023-10-31T04:12:37;13.10;73.50
30304;DHT22;17112;48.636;10.152;2023-10-31T04:15:03;13.10;73.60
30304;DHT22;17112;48.636;10.152;2023-10-31T04:17:29;13.10;73.70
30304;DHT22;17112;48.636;10.152;2023-10-31T04:19:55;13.10;73.70
30304;DHT22;17112;48.636;10.152;2023-10-31T04:22:20;13.10;73.80
30304;DHT22;17112;48.636;10.152;2023-10-31T04:24:46;13.10;73.70
30304;DHT22;17112;48.636;10.152;2023-10-31T04:27:12;13.10;73.70
30304;DHT22;17112;48.636;10.152;2023-10-31T04:29:37;13.10;73.80
30304;DHT22;17112;48.636;10.152;2023-10-31T04:32:03;13.10;73.80
30304;DHT22;17112;48.636;10.152;2023-10-31T04:34:29;13.10;73.70
30304;DHT22;17112;48.636;10.152;2023-10-31T04:36:54;13.10;73.50
30304;DHT22;17112;48.636;10.152;2023-10-31T04:39:20;13.10;73.10
30304;DHT22;17112;48.636;10.152;2023-10-31T04:41:46;13.10;72.80
30304;DHT22;17112;48.636;10.152;2023-10-31T04:44:11;13.00;72.80
30304;DHT22;17112;48.636;10.152;2023-10-31T04:46:37;13.00;72.70
30304;DHT22;17112;48.636;10.152;2023-10-31T04:49:03;13.00;72.80
30304;DHT22;17112;48.636;10.152;2023-10-31T04:51:36;12.90;72.70
30304;DHT22;17112;48.636;10.152;2023-10-31T04:54:03;12.90;72.50
30304;DHT22;17112;48.636;10.152;2023-10-31T04:56:28;12.90;72.50
30304;DHT22;17112;48.636;10.152;2023-10-31T04:58:54;12.90;72.50
30304;DHT22;17112;48.636;10.152;2023-10-31T05:01:20;12.80;72.30
30304;DHT22;17112;48.636;10.152;2023-10-31T05:03:46;12.80;72.50
30304;DHT22;17112;48.636;10.152;2023-10-31T05:06:11;12.80;72.50
30304;DHT22;17112;48.636;10.152;2023-10-31T05:08:37;12.80;72.30
30304;DHT22;17112;48.636;10.152;2023-10-31T05:11:03;12.80;72.30
30304;DHT22;17112;48.636;10.152;2023-10-31T05:13:29;12.70;72.30
30304;DHT22;17112;48.636;10.152;2023-10-31T05:15:54;12.70;72.50
30304;DHT22;17112;48.636;10.152;2023-10-31T05:18:20;12.70;72.50
30304;DHT22;17112;48.636;10.152;2023-10-31T05:20:46;12.70;72.40
30304;DHT22;17112;48.636;10.152;2023-10-31T05:23:13;12.70;72.40
30304;DHT22;17112;48.636;10.152;2023-10-31T05:25:38;12.70;72.40
30304;DHT22;17112;48.636;10.152;2023-10-31T05:28:04;12.70;72.50
30304;DHT22;17112;48.636;10.152;2023-10-31T05:30:30;12.60;72.60
30304;DHT22;17112;48.636;10.152;2023-10-31T05:32:56;12.60;72.70
30304;DHT22;17112;48.636;10.152;2023-10-31T05:35:22;12.60;72.80
30304;DHT22;17112;48.636;10.152;2023-10-31T05:37:48;12.60;72.80
30304;DHT22;17112;48.636;10.152;2023-10-31T05:40:14;12.70;72.90
30304;DHT22;17112;48.636;10.152;2023-10-31T05:42:40;12.60;72.70
30304;DHT22;17112;48.636;10.152;2023-10-31T05:45:06;12.60;72.60
30304;DHT22;17112;48.636;10.152;2023-10-31T05:47:32;12.60;72.30
30304;DHT22;17112;48.636;10.152;2023-10-31T05:50:00;12.60;72.10
30304;DHT22;17112;48.636;10.152;2023-10-31T05:52:29;12.60;72.10
30304;DHT22;17112;48.636;10.152;2023-10-31T05:54:55;12.50;71.90
30304;DHT22;17112;48.636;10.152;2023-10-31T05:57:21;12.50;72.00
30304;DHT22;17112;48.636;10.152;2023-10-31T05:59:47;12.50;72.00
30304;DHT22;17112;48.636;10.152;2023-10-31T06:02:14;12.50;72.10
30304;DHT22;17112;48.636;10.152;2023-10-31T06:04:40;12.50;72.20
30304;DHT22;17112;48.636;10.152;2023-10-31T06:07:06;12.50;72.20
30304;DHT22;17112;48.636;10.152;2023-10-31T06:09:31;12.40;72.20
30304;DHT22;17112;48.636;10.152;2023-10-31T06:11:59;12.40;72.30
30304;DHT22;17112;48.636;10.152;2023-10-31T06:14:25;12.40;72.00
30304;DHT22;17112;48.636;10.152;2023-10-31T06:16:51;12.50;72.00
30304;DHT22;17112;48.636;10.152;2023-10-31T06:19:17;12.50;72.00
30304;DHT22;17112;48.636;10.152;2023-10-31T06:21:43;12.40;71.90
30304;DHT22;17112;48.636;10.152;2023-10-31T06:24:09;12.50;71.90
30304;DHT22;17112;48.636;10.152;2023-10-31T06:26:34;12.40;71.90
30304;DHT22;17112;48.636;10.152;2023-10-31T06:29:00;12.40;71.90
30304;DHT22;17112;48.636;10.152;2023-10-31T06:31:26;12.40;71.90
30304;DHT22;17112;48.636;10.152;2023-10-31T06:33:52;12.40;71.80
30304;DHT22;17112;48.636;10.152;2023-10-31T06:36:17;12.40;71.70
30304;DHT22;17112;48.636;10.152;2023-10-31T06:38:43;12.40;71.70
30304;DHT22;17112;48.636;10.152;2023-10-31T06:41:08;12.40;71.70
30304;DHT22;17112;48.636;10.152;2023-10-31T06:43:34;12.50;71.70
30304;DHT22;17112;48.636;10.152;2023-10-31T06:46:00;12.40;71.50
30304;DHT22;17112;48.636;10.152;2023-10-31T06:48:27;12.40;71.60
30304;DHT22;17112;48.636;10.152;2023-10-31T06:50:53;12.40;71.70
30304;DHT22;17112;48.636;10.152;2023-10-31T06:53:19;12.40;71.70
30304;DHT22;17112;48.636;10.152;2023-10-31T06:55:44;12.40;71.60
30304;DHT22;17112;48.636;10.152;2023-10-31T06:58:10;12.50;71.60
30304;DHT22;17112;48.636;10.152;2023-10-31T07:00:36;12.40;71.30
30304;DHT22;17112;48.636;10.152;2023-10-31T07:03:03;12.40;71.30
30304;DHT22;17112;48.636;10.152;2023-10-31T07:05:32;12.40;71.10
30304;DHT22;17112;48.636;10.152;2023-10-31T07:07:57;12.40;71.10
30304;DHT22;17112;48.636;10.152;2023-10-31T07:10:23;12.50;71.80
30304;DHT22;17112;48.636;10.152;2023-10-31T07:12:49;12.50;70.90
30304;DHT22;17112;48.636;10.152;2023-10-31T07:15:15;12.50;70.80
30304;DHT22;17112;48.636;10.152;2023-10-31T07:17:40;12.50;70.80
30304;DHT22;17112;48.636;10.152;2023-10-31T07:20:09;12.50;70.80
30304;DHT22;17112;48.636;10.152;2023-10-31T07:22:35;12.50;70.70
30304;DHT22;17112;48.636;10.152;2023-10-31T07:25:01;12.50;70.70
30304;DHT22;17112;48.636;10.152;2023-10-31T07:27:29;12.50;70.60
30304;DHT22;17112;48.636;10.152;2023-10-31T07:29:55;12.50;70.60
30304;DHT22;17112;48.636;10.152;2023-10-31T07:32:21;12.50;70.50
30304;DHT22;17112;48.636;10.152;2023-10-31T07:34:46;12.60;70.40
30304;DHT22;17112;48.636;10.152;2023-10-31T07:37:12;12.60;70.30
30304;DHT22;17112;48.636;10.152;2023-10-31T07:39:38;12.60;70.30
30304;DHT22;17112;48.636;10.152;2023-10-31T07:42:04;12.60;70.30
30304;DHT22;17112;48.636;10.152;2023-10-31T07:44:29;12.60;70.20
30304;DHT22;17112;48.636;10.152;2023-10-31T07:46:55;12.70;70.20
30304;DHT22;17112;48.636;10.152;2023-10-31T07:49:21;12.70;70.40
30304;DHT22;17112;48.636;10.152;2023-10-31T07:51:47;12.70;70.50
30304;DHT22;17112;48.636;10.152;2023-10-31T07:54:14;12.70;70.80
30304;DHT22;17112;48.636;10.152;2023-10-31T07:56:40;12.80;71.00
30304;DHT22;17112;48.636;10.152;2023-10-31T07:59:06;12.80;71.20
30304;DHT22;17112;48.636;10.152;2023-10-31T08:01:33;12.90;71.10
30304;DHT22;17112;48.636;10.152;2023-10-31T08:04:00;13.00;71.00
30304;DHT22;17112;48.636;10.152;2023-10-31T08:06:28;13.00;70.90
30304;DHT22;17112;48.636;10.152;2023-10-31T08:08:54;13.00;70.60
30304;DHT22;17112;48.636;10.152;2023-10-31T08:11:20;13.10;70.20
30304;DHT22;17112;48.636;10.152;2023-10-31T08:13:45;13.10;70.40
30304;DHT22;17112;48.636;10.152;2023-10-31T08:16:17;13.10;70.40
30304;DHT22;17112;48.636;10.152;2023-10-31T08:18:48;13.10;70.10
30304;DHT22;17112;48.636;10.152;2023-10-31T08:21:14;13.20;70.20
30304;DHT22;17112;48.636;10.152;2023-10-31T08:23:40;13.40;70.30
30304;DHT22;17112;48.636;10.152;2023-10-31T08:26:12;13.20;70.10
30304;DHT22;17112;48.636;10.152;2023-10-31T08:28:38;13.20;70.10
30304;DHT22;17112;48.636;10.152;2023-10-31T08:31:03;13.20;70.10
30304;DHT22;17112;48.636;10.152;2023-10-31T08:33:29;13.20;70.20
30304;DHT22;17112;48.636;10.152;2023-10-31T08:35:55;13.30;70.50
30304;DHT22;17112;48.636;10.152;2023-10-31T08:38:21;13.30;70.40
30304;DHT22;17112;48.636;10.152;2023-10-31T08:40:46;13.40;70.30
30304;DHT22;17112;48.636;10.152;2023-10-31T08:43:12;13.40;70.00
30304;DHT22;17112;48.636;10.152;2023-10-31T08:45:40;13.40;69.90
30304;DHT22;17112;48.636;10.152;2023-10-31T08:48:05;13.40;69.80
30304;DHT22;17112;48.636;10.152;2023-10-31T08:50:31;13.50;70.00
30304;DHT22;17112;48.636;10.152;2023-10-31T08:52:56;13.50;70.00
30304;DHT22;17112;48.636;10.152;2023-10-31T08:55:22;13.50;69.50
30304;DHT22;17112;48.636;10.152;2023-10-31T08:57:48;13.60;69.40
30304;DHT22;17112;48.636;10.152;2023-10-31T09:00:14;13.60;69.60
30304;DHT22;17112;48.636;10.152;2023-10-31T09:02:39;13.60;69.60
30304;DHT22;17112;48.636;10.152;2023-10-31T09:05:05;13.70;69.50
30304;DHT22;17112;48.636;10.152;2023-10-31T09:07:31;13.70;69.10
30304;DHT22;17112;48.636;10.152;2023-10-31T09:09:57;13.70;69.00
30304;DHT22;17112;48.636;10.152;2023-10-31T09:12:23;13.70;69.00
30304;DHT22;17112;48.636;10.152;2023-10-31T09:14:48;13.70;68.90
30304;DHT22;17112;48.636;10.152;2023-10-31T09:17:14;13.70;68.80
30304;DHT22;17112;48.636;10.152;2023-10-31T09:19:40;13.80;68.40
30304;DHT22;17112;48.636;10.152;2023-10-31T09:22:05;13.80;68.40
30304;DHT22;17112;48.636;10.152;2023-10-31T09:24:33;13.80;68.30
30304;DHT22;17112;48.636;10.152;2023-10-31T09:26:58;13.90;68.00
30304;DHT22;17112;48.636;10.152;2023-10-31T09:29:24;13.90;67.70
30304;DHT22;17112;48.636;10.152;2023-10-31T09:31:49;14.00;67.60
30304;DHT22;17112;48.636;10.152;2023-10-31T09:34:15;14.00;67.50
30304;DHT22;17112;48.636;10.152;2023-10-31T09:36:42;14.00;67.30
30304;DHT22;17112;48.636;10.152;2023-10-31T09:39:07;14.10;66.80
30304;DHT22;17112;48.636;10.152;2023-10-31T09:41:33;14.10;67.00
30304;DHT22;17112;48.636;10.152;2023-10-31T09:43:59;14.20;66.90
30304;DHT22;17112;48.636;10.152;2023-10-31T09:46:25;14.30;66.40
30304;DHT22;17112;48.636;10.152;2023-10-31T09:48:51;14.30;65.60
30304;DHT22;17112;48.636;10.152;2023-10-31T09:51:17;14.40;65.50
30304;DHT22;17112;48.636;10.152;2023-10-31T09:53:45;14.40;65.30
30304;DHT22;17112;48.636;10.152;2023-10-31T09:56:11;14.40;64.10
30304;DHT22;17112;48.636;10.152;2023-10-31T09:58:36;14.50;64.60
30304;DHT22;17112;48.636;10.152;2023-10-31T10:01:04;14.50;64.50
30304;DHT22;17112;48.636;10.152;2023-10-31T10:03:30;14.50;64.30
30304;DHT22;17112;48.636;10.152;2023-10-31T10:05:56;14.60;64.50
30304;DHT22;17112;48.636;10.152;2023-10-31T10:08:22;14.60;64.40
30304;DHT22;17112;48.636;10.152;2023-10-31T10:10:49;14.70;64.40
30304;DHT22;17112;48.636;10.152;2023-10-31T10:13:18;14.80;64.60
30304;DHT22;17112;48.636;10.152;2023-10-31T10:15:48;14.90;64.20
30304;DHT22;17112;48.636;10.152;2023-10-31T10:20:57;15.10;62.70
30304;DHT22;17112;48.636;10.152;2023-10-31T10:23:24;15.10;61.70
30304;DHT22;17112;48.636;10.152;2023-10-31T10:25:50;15.10;62.30
30304;DHT22;17112;48.636;10.152;2023-10-31T10:28:16;15.20;61.90
30304;DHT22;17112;48.636;10.152;2023-10-31T10:30:41;15.20;62.30
30304;DHT22;17112;48.636;10.152;2023-10-31T10:33:07;15.30;62.40
30304;DHT22;17112;48.636;10.152;2023-10-31T10:35:33;15.30;62.00
30304;DHT22;17112;48.636;10.152;2023-10-31T10:38:00;15.40;61.70
30304;DHT22;17112;48.636;10.152;2023-10-31T10:40:27;15.40;61.00
30304;DHT22;17112;48.636;10.152;2023-10-31T10:42:56;15.40;59.90
30304;DHT22;17112;48.636;10.152;2023-10-31T10:45:30;15.40;60.70
30304;DHT22;17112;48.636;10.152;2023-10-31T10:47:58;15.40;60.80
30304;DHT22;17112;48.636;10.152;2023-10-31T10:50:29;15.40;61.20
30304;DHT22;17112;48.636;10.152;2023-10-31T10:55:45;15.40;60.90
30304;DHT22;17112;48.636;10.152;2023-10-31T11:00:58;15.50;60.40
30304;DHT22;17112;48.636;10.152;2023-10-31T11:03:26;15.50;60.80
30304;DHT22;17112;48.636;10.152;2023-10-31T11:05:53;15.50;60.50
30304;DHT22;17112;48.636;10.152;2023-10-31T11:08:20;15.50;60.20
30304;DHT22;17112;48.636;10.152;2023-10-31T11:10:48;15.50;60.10
30304;DHT22;17112;48.636;10.152;2023-10-31T11:13:14;15.50;59.50
30304;DHT22;17112;48.636;10.152;2023-10-31T11:15:41;15.50;59.40
30304;DHT22;17112;48.636;10.152;2023-10-31T11:18:08;15.50;59.30
30304;DHT22;17112;48.636;10.152;2023-10-31T11:20:36;15.50;59.50
30304;DHT22;17112;48.636;10.152;2023-10-31T11:23:02;15.60;59.20
30304;DHT22;17112;48.636;10.152;2023-10-31T11:25:32;15.60;59.70
30304;DHT22;17112;48.636;10.152;2023-10-31T11:28:11;15.60;59.10
30304;DHT22;17112;48.636;10.152;2023-10-31T11:30:37;15.70;59.00
30304;DHT22;17112;48.636;10.152;2023-10-31T11:33:03;15.70;59.90
30304;DHT22;17112;48.636;10.152;2023-10-31T11:35:32;15.80;59.30
30304;DHT22;17112;48.636;10.152;2023-10-31T11:38:16;15.70;59.50
30304;DHT22;17112;48.636;10.152;2023-10-31T11:43:13;15.70;58.50
30304;DHT22;17112;48.636;10.152;2023-10-31T11:45:47;15.60;59.00
30304;DHT22;17112;48.636;10.152;2023-10-31T11:48:14;15.60;59.80
30304;DHT22;17112;48.636;10.152;2023-10-31T11:50:40;15.50;60.10
30304;DHT22;17112;48.636;10.152;2023-10-31T11:53:13;15.50;60.20
30304;DHT22;17112;48.636;10.152;2023-10-31T11:58:24;15.40;60.60
30304;DHT22;17112;48.636;10.152;2023-10-31T12:01:04;15.30;60.80
30304;DHT22;17112;48.636;10.152;2023-10-31T12:03:41;15.40;61.20
30304;DHT22;17112;48.636;10.152;2023-10-31T12:06:07;15.40;61.10
30304;DHT22;17112;48.636;10.152;2023-10-31T12:08:38;15.30;61.20
30304;DHT22;17112;48.636;10.152;2023-10-31T12:11:11;15.30;61.40
30304;DHT22;17112;48.636;10.152;2023-10-31T12:13:39;15.30;61.90
30304;DHT22;17112;48.636;10.152;2023-10-31T12:16:06;15.30;62.20
30304;DHT22;17112;48.636;10.152;2023-10-31T12:18:34;15.30;62.40
30304;DHT22;17112;48.636;10.152;2023-10-31T12:21:00;15.20;62.70
30304;DHT22;17112;48.636;10.152;2023-10-31T12:23:26;15.20;63.00
30304;DHT22;17112;48.636;10.152;2023-10-31T12:25:52;15.10;63.50
30304;DHT22;17112;48.636;10.152;2023-10-31T12:28:22;15.10;63.80
30304;DHT22;17112;48.636;10.152;2023-10-31T12:30:50;15.10;63.90
30304;DHT22;17112;48.636;10.152;2023-10-31T12:33:17;15.10;64.10
30304;DHT22;17112;48.636;10.152;2023-10-31T12:35:44;15.10;64.00
30304;DHT22;17112;48.636;10.152;2023-10-31T12:38:13;15.10;64.10
30304;DHT22;17112;48.636;10.152;2023-10-31T12:40:43;15.10;64.70
30304;DHT22;17112;48.636;10.152;2023-10-31T12:43:10;15.10;64.90
30304;DHT22;17112;48.636;10.152;2023-10-31T12:45:36;15.10;65.20
30304;DHT22;17112;48.636;10.152;2023-10-31T12:48:06;15.20;65.40
30304;DHT22;17112;48.636;10.152;2023-10-31T12:50:33;15.20;65.30
30304;DHT22;17112;48.636;10.152;2023-10-31T12:52:59;15.20;65.40
30304;DHT22;17112;48.636;10.152;2023-10-31T12:55:27;15.20;65.30
30304;DHT22;17112;48.636;10.152;2023-10-31T12:57:54;15.20;65.40
30304;DHT22;17112;48.636;10.152;2023-10-31T13:00:22;15.20;65.30
30304;DHT22;17112;48.636;10.152;2023-10-31T13:03:05;15.10;64.90
30304;DHT22;17112;48.636;10.152;2023-10-31T13:05:31;15.10;64.80
30304;DHT22;17112;48.636;10.152;2023-10-31T13:07:59;15.00;64.90
30304;DHT22;17112;48.636;10.152;2023-10-31T13:10:27;15.00;65.20
30304;DHT22;17112;48.636;10.152;2023-10-31T13:12:53;14.90;65.40
30304;DHT22;17112;48.636;10.152;2023-10-31T13:15:21;14.90;65.60
30304;DHT22;17112;48.636;10.152;2023-10-31T13:17:51;14.80;65.90
30304;DHT22;17112;48.636;10.152;2023-10-31T13:20:19;14.80;66.30
30304;DHT22;17112;48.636;10.152;2023-10-31T13:22:45;14.90;66.80
30304;DHT22;17112;48.636;10.152;2023-10-31T13:25:13;14.90;67.10
30304;DHT22;17112;48.636;10.152;2023-10-31T13:27:40;15.00;67.10
30304;DHT22;17112;48.636;10.152;2023-10-31T13:30:07;15.00;66.90
30304;DHT22;17112;48.636;10.152;2023-10-31T13:32:34;15.10;67.10
30304;DHT22;17112;48.636;10.152;2023-10-31T13:35:00;15.10;66.90
30304;DHT22;17112;48.636;10.152;2023-10-31T13:37:26;15.20;67.10
30304;DHT22;17112;48.636;10.152;2023-10-31T13:39:52;15.30;67.20
30304;DHT22;17112;48.636;10.152;2023-10-31T13:42:18;15.40;66.70
30304;DHT22;17112;48.636;10.152;2023-10-31T13:44:44;15.40;66.10
30304;DHT22;17112;48.636;10.152;2023-10-31T13:47:10;15.40;65.70
30304;DHT22;17112;48.636;10.152;2023-10-31T13:49:36;15.40;65.70
30304;DHT22;17112;48.636;10.152;2023-10-31T13:52:06;15.40;65.80
30304;DHT22;17112;48.636;10.152;2023-10-31T13:54:35;15.40;65.90
30304;DHT22;17112;48.636;10.152;2023-10-31T13:57:00;15.40;66.00
30304;DHT22;17112;48.636;10.152;2023-10-31T13:59:26;15.40;65.90
30304;DHT22;17112;48.636;10.152;2023-10-31T14:01:52;15.40;65.80
30304;DHT22;17112;48.636;10.152;2023-10-31T14:04:18;15.40;66.00
30304;DHT22;17112;48.636;10.152;2023-10-31T14:06:45;15.40;66.30
30304;DHT22;17112;48.636;10.152;2023-10-31T14:09:11;15.30;66.40
30304;DHT22;17112;48.636;10.152;2023-10-31T14:11:38;15.30;66.60
30304;DHT22;17112;48.636;10.152;2023-10-31T14:14:04;15.30;66.90
30304;DHT22;17112;48.636;10.152;2023-10-31T14:16:42;15.30;67.20
30304;DHT22;17112;48.636;10.152;2023-10-31T14:19:11;15.30;67.40
30304;DHT22;17112;48.636;10.152;2023-10-31T14:21:39;15.30;67.20
30304;DHT22;17112;48.636;10.152;2023-10-31T14:24:05;15.30;66.90
30304;DHT22;17112;48.636;10.152;2023-10-31T14:26:31;15.20;66.80
30304;DHT22;17112;48.636;10.152;2023-10-31T14:29:00;15.10;67.00
30304;DHT22;17112;48.636;10.152;2023-10-31T14:31:25;15.10;67.00
30304;DHT22;17112;48.636;10.152;2023-10-31T14:33:51;15.00;66.90
30304;DHT22;17112;48.636;10.152;2023-10-31T14:36:17;15.00;67.20
30304;DHT22;17112;48.636;10.152;2023-10-31T14:38:43;14.80;67.30
30304;DHT22;17112;48.636;10.152;2023-10-31T14:41:09;14.80;67.30
30304;DHT22;17112;48.636;10.152;2023-10-31T14:43:36;14.80;67.60
30304;DHT22;17112;48.636;10.152;2023-10-31T14:46:02;14.80;67.90
30304;DHT22;17112;48.636;10.152;2023-10-31T14:48:28;14.80;68.30
30304;DHT22;17112;48.636;10.152;2023-10-31T14:50:55;14.80;68.50
30304;DHT22;17112;48.636;10.152;2023-10-31T14:53:22;14.90;68.60
30304;DHT22;17112;48.636;10.152;2023-10-31T14:55:48;14.90;68.80
30304;DHT22;17112;48.636;10.152;2023-10-31T14:58:14;14.90;69.10
30304;DHT22;17112;48.636;10.152;2023-10-31T15:00:39;14.90;69.00
30304;DHT22;17112;48.636;10.152;2023-10-31T15:03:05;14.90;68.70
30304;DHT22;17112;48.636;10.152;2023-10-31T15:05:31;14.90;68.90
30304;DHT22;17112;48.636;10.152;2023-10-31T15:07:58;14.90;69.10
30304;DHT22;17112;48.636;10.152;2023-10-31T15:10:24;14.90;68.90
30304;DHT22;17112;48.636;10.152;2023-10-31T15:12:53;14.90;68.90
30304;DHT22;17112;48.636;10.152;2023-10-31T15:15:19;14.90;69.00
30304;DHT22;17112;48.636;10.152;2023-10-31T15:17:45;14.90;69.20
30304;DHT22;17112;48.636;10.152;2023-10-31T15:20:13;14.80;69.10
30304;DHT22;17112;48.636;10.152;2023-10-31T15:22:42;14.80;69.10
30304;DHT22;17112;48.636;10.152;2023-10-31T15:25:09;14.80;69.30